Time;durP1;ratioP1;P1;durP2;ratioP2;P2;SDS_P1;SDS_P2;PMS_P1;PMS_P2;Temp;Humidity;BMP_temperature;BMP_pressure;BME280_temperature;BME280_humidity;BME280_pressure;Samples;Min_cycle;Max_cycle;Signal;HPM_P1;HPM_P2
2023/04/07 00:00:39;;;;;;;14.18;8.65;;;7.40;99.90;;;;;;5003070;28;20037;-67
2023/04/07 00:03:06;;;;;;;16.65;9.57;;;7.40;99.90;;;;;;4998620;28;20027;-66
2023/04/07 00:05:32;;;;;;;15.50;9.15;;;7.50;99.90;;;;;;5001542;28;20037;-67
2023/04/07 00:07:57;;;;;;;18.27;9.73;;;7.50;99.90;;;;;;5007242;28;20040;-66
2023/04/07 00:10:24;;;;;;;13.40;8.38;;;7.50;99.90;;;;;;5005707;28;20535;-65
2023/04/07 00:12:50;;;;;;;17.25;10.00;;;7.50;99.90;;;;;;5008786;28;20038;-66
2023/04/07 00:15:15;;;;;;;13.05;8.75;;;7.50;99.90;;;;;;5007691;28;20046;-66
2023/04/07 00:17:41;;;;;;;14.18;9.32;;;7.50;99.90;;;;;;5020257;28;20074;-66
2023/04/07 00:20:07;;;;;;;12.32;8.10;;;7.50;99.90;;;;;;5016226;28;20030;-66
2023/04/07 00:22:33;;;;;;;13.63;8.57;;;7.50;99.90;;;;;;5022600;28;20045;-66
2023/04/07 00:24:58;;;;;;;15.60;9.00;;;7.50;99.90;;;;;;5012531;28;20407;-66
2023/04/07 00:27:24;;;;;;;14.63;9.13;;;7.40;99.90;;;;;;5013238;28;20042;-65
2023/04/07 00:29:49;;;;;;;15.65;8.82;;;7.50;99.90;;;;;;4992124;28;20046;-67
2023/04/07 00:32:15;;;;;;;16.77;8.73;;;7.40;99.90;;;;;;5005287;28;20037;-67
2023/04/07 00:34:40;;;;;;;15.88;9.35;;;7.50;99.90;;;;;;5015625;28;20042;-66
2023/04/07 00:37:06;;;;;;;18.33;9.48;;;7.50;99.90;;;;;;5015104;28;20029;-66
2023/04/07 00:39:32;;;;;;;15.93;9.70;;;7.50;99.90;;;;;;5012709;28;20474;-67
2023/04/07 00:41:57;;;;;;;14.63;8.68;;;7.50;99.90;;;;;;5015201;28;20026;-67
2023/04/07 00:44:23;;;;;;;15.35;9.23;;;7.50;99.90;;;;;;5009263;28;20096;-66
2023/04/07 00:46:48;;;;;;;19.25;10.75;;;7.50;99.90;;;;;;5016033;28;20523;-66
2023/04/07 00:49:16;;;;;;;18.33;9.35;;;7.50;99.90;;;;;;5015332;28;20472;-67
2023/04/07 00:51:42;;;;;;;15.35;9.23;;;7.50;99.90;;;;;;5009198;28;20033;-67
2023/04/07 00:54:09;;;;;;;16.55;10.30;;;7.50;99.90;;;;;;5004167;28;20037;-65
2023/04/07 00:56:34;;;;;;;21.33;9.30;;;7.50;99.90;;;;;;5013653;28;20402;-66
2023/04/07 00:59:02;;;;;;;16.20;10.05;;;7.50;99.90;;;;;;5011382;28;20037;-65
2023/04/07 01:01:47;;;;;;;14.75;9.38;;;7.50;99.90;;;;;;5010833;28;20029;-65
2023/04/07 01:04:35;;;;;;;;;;;7.50;99.90;;;;;;5009356;28;20036;-66
2023/04/07 01:07:38;;;;;;;21.05;9.30;;;7.50;99.90;;;;;;5005376;28;19909;-66
2023/04/07 01:10:13;;;;;;;15.23;8.50;;;7.50;99.90;;;;;;4994849;28;20034;-66
2023/04/07 01:12:50;;;;;;;17.67;8.45;;;7.60;99.90;;;;;;5012426;28;20029;-67
2023/04/07 01:15:19;;;;;;;16.67;10.35;;;7.60;99.90;;;;;;5014040;28;20411;-66
2023/04/07 01:17:51;;;;;;;16.00;9.95;;;7.60;99.90;;;;;;5017218;28;20056;-66
2023/04/07 01:20:21;;;;;;;15.20;9.23;;;7.60;99.90;;;;;;5012664;28;20030;-67
2023/04/07 01:22:54;;;;;;;16.92;9.05;;;7.60;99.90;;;;;;5015689;28;20021;-66
2023/04/07 01:25:42;;;;;;;19.63;10.57;;;7.60;99.90;;;;;;5011675;28;20105;-66
2023/04/07 01:28:26;;;;;;;13.82;8.35;;;7.60;99.90;;;;;;5007372;28;20434;-66
2023/04/07 01:30:55;;;;;;;16.65;9.95;;;7.60;99.90;;;;;;4981249;28;20391;-67
2023/04/07 01:33:22;;;;;;;16.00;10.00;;;7.60;99.90;;;;;;5010881;28;20092;-65
2023/04/07 01:35:48;;;;;;;16.67;10.43;;;7.60;99.90;;;;;;5014687;28;20059;-66
2023/04/07 01:38:15;;;;;;;16.35;9.45;;;7.50;99.90;;;;;;5009394;28;20062;-66
2023/04/07 01:40:41;;;;;;;19.23;9.77;;;7.60;99.90;;;;;;5003217;28;20037;-67
2023/04/07 01:43:07;;;;;;;16.58;9.82;;;7.60;99.90;;;;;;5007973;28;20424;-67
2023/04/07 01:45:35;;;;;;;17.80;10.20;;;7.60;99.90;;;;;;5002635;28;20128;-67
2023/04/07 01:48:01;;;;;;;21.60;10.65;;;7.60;99.90;;;;;;5005887;28;20516;-66
2023/04/07 01:50:28;;;;;;;18.58;11.05;;;7.60;99.90;;;;;;5002323;28;20030;-66
2023/04/07 01:52:54;;;;;;;17.88;10.20;;;7.60;99.90;;;;;;5013458;28;20029;-65
2023/04/07 01:55:21;;;;;;;19.42;10.23;;;7.60;99.90;;;;;;5011011;28;20044;-67
2023/04/07 01:57:47;;;;;;;15.40;8.85;;;7.60;99.90;;;;;;5008060;28;20365;-66
2023/04/07 02:00:13;;;;;;;18.85;9.93;;;7.60;99.90;;;;;;5010015;28;20029;-66
2023/04/07 02:02:42;;;;;;;19.73;9.77;;;7.60;99.90;;;;;;5014063;28;20491;-67
2023/04/07 02:05:12;;;;;;;18.95;9.15;;;7.50;99.90;;;;;;5007592;28;20048;-66
2023/04/07 02:08:03;;;;;;;15.07;8.77;;;7.50;99.90;;;;;;5015102;28;20029;-66
2023/04/07 02:10:32;;;;;;;16.00;8.95;;;7.50;99.90;;;;;;5008018;28;20034;-66
2023/04/07 02:12:59;;;;;;;15.02;8.73;;;7.60;99.90;;;;;;5009625;28;20040;-66
2023/04/07 02:15:26;;;;;;;18.73;9.75;;;7.50;99.90;;;;;;5002030;28;20022;-67
2023/04/07 02:17:53;;;;;;;16.55;10.23;;;7.60;99.90;;;;;;5005640;28;20030;-67
2023/04/07 02:20:20;;;;;;;20.13;10.20;;;7.50;99.90;;;;;;5005108;28;20026;-67
2023/04/07 02:22:46;;;;;;;16.10;10.27;;;7.60;99.90;;;;;;5003201;28;20517;-66
2023/04/07 02:25:23;;;;;;;15.75;9.10;;;7.60;99.90;;;;;;5004663;28;20025;-66
2023/04/07 02:27:49;;;;;;;14.23;9.07;;;7.60;99.90;;;;;;5004901;28;20557;-66
2023/04/07 02:30:15;;;;;;;17.02;9.32;;;7.60;99.90;;;;;;4988867;28;20042;-67
2023/04/07 02:32:40;;;;;;;17.45;10.35;;;7.60;99.90;;;;;;5000635;28;20026;-66
2023/04/07 02:35:06;;;;;;;20.60;9.70;;;7.70;99.90;;;;;;5004160;28;20030;-66
2023/04/07 02:37:32;;;;;;;15.48;10.32;;;7.70;99.90;;;;;;5003021;28;20104;-67
2023/04/07 02:39:57;;;;;;;15.80;8.95;;;7.70;99.90;;;;;;5000282;28;20026;-66
2023/04/07 02:42:23;;;;;;;15.98;7.75;;;7.70;99.90;;;;;;5004122;28;20030;-67
2023/04/07 02:44:49;;;;;;;17.35;9.80;;;7.70;99.90;;;;;;5003381;28;20092;-66
2023/04/07 02:47:15;;;;;;;20.27;9.82;;;7.70;99.90;;;;;;5004457;28;20399;-67
2023/04/07 02:49:41;;;;;;;17.65;9.52;;;7.70;99.90;;;;;;5008540;28;20026;-66
2023/04/07 02:52:06;;;;;;;15.07;9.32;;;7.70;99.90;;;;;;5009812;28;20479;-67
2023/04/07 02:54:32;;;;;;;17.60;9.57;;;7.70;99.90;;;;;;5009112;28;20081;-66
2023/04/07 02:56:57;;;;;;;14.48;9.18;;;7.70;99.90;;;;;;5009140;28;20026;-67
2023/04/07 02:59:23;;;;;;;15.57;9.00;;;7.70;99.90;;;;;;5009491;28;20138;-67
2023/04/07 03:01:48;;;;;;;20.38;9.50;;;7.70;99.90;;;;;;5005784;28;20025;-66
2023/04/07 03:04:14;;;;;;;21.58;9.15;;;7.70;99.90;;;;;;5010382;28;20490;-66
2023/04/07 03:06:40;;;;;;;17.23;9.75;;;7.70;99.90;;;;;;5003860;28;20022;-66
2023/04/07 03:09:05;;;;;;;15.95;9.43;;;7.70;99.90;;;;;;5007211;28;20498;-66
2023/04/07 03:11:31;;;;;;;15.13;8.90;;;7.70;99.90;;;;;;5014792;28;20030;-66
2023/04/07 03:13:57;;;;;;;15.25;9.38;;;7.70;99.90;;;;;;5006892;28;20110;-67
2023/04/07 03:16:22;;;;;;;16.55;9.82;;;7.70;99.90;;;;;;5008981;28;20036;-67
2023/04/07 03:18:48;;;;;;;15.35;9.10;;;7.60;99.90;;;;;;5006467;28;20029;-66
2023/04/07 03:21:13;;;;;;;15.65;8.70;;;7.70;99.90;;;;;;5007077;28;20022;-65
2023/04/07 03:23:39;;;;;;;14.77;9.52;;;7.70;99.90;;;;;;5006602;28;20079;-66
2023/04/07 03:26:05;;;;;;;16.10;9.82;;;7.70;99.90;;;;;;5010046;28;20535;-64
2023/04/07 03:28:31;;;;;;;14.98;9.48;;;7.70;99.90;;;;;;5006928;28;20029;-65
2023/04/07 03:30:56;;;;;;;15.60;9.75;;;7.70;99.90;;;;;;4982592;28;20470;-66
2023/04/07 03:33:22;;;;;;;13.65;8.43;;;7.70;99.90;;;;;;5009027;28;20037;-66
2023/04/07 03:35:47;;;;;;;10.50;6.68;;;7.70;99.90;;;;;;5006931;28;20026;-65
2023/04/07 03:38:13;;;;;;;10.52;6.60;;;7.70;99.90;;;;;;5006766;28;20027;-66
2023/04/07 03:40:39;;;;;;;8.93;5.78;;;7.70;99.90;;;;;;5008862;28;20079;-64
2023/04/07 03:43:04;;;;;;;11.02;6.80;;;7.70;99.90;;;;;;5008224;28;20083;-66
2023/04/07 03:45:32;;;;;;;10.50;6.47;;;7.60;99.90;;;;;;5005644;28;20026;-65
2023/04/07 03:47:58;;;;;;;10.57;6.65;;;7.70;99.90;;;;;;5007326;28;20026;-66
2023/04/07 03:50:23;;;;;;;8.77;5.60;;;7.70;99.90;;;;;;5003092;28;20030;-66
2023/04/07 03:52:49;;;;;;;8.35;5.30;;;7.70;99.90;;;;;;5010652;28;20022;-67
2023/04/07 03:55:15;;;;;;;10.65;6.22;;;7.70;99.90;;;;;;5006947;28;20022;-65
2023/04/07 03:57:40;;;;;;;8.60;6.05;;;7.70;99.90;;;;;;5009609;28;20025;-66
2023/04/07 04:00:07;;;;;;;9.85;5.93;;;7.70;99.90;;;;;;5006684;28;20032;-66
2023/04/07 04:02:32;;;;;;;8.70;5.82;;;7.70;99.90;;;;;;5007707;28;20025;-66
2023/04/07 04:04:58;;;;;;;9.82;6.40;;;7.70;99.90;;;;;;5005438;28;20502;-66
2023/04/07 04:07:25;;;;;;;12.90;7.18;;;7.70;99.90;;;;;;5006087;28;20025;-66
2023/04/07 04:09:50;;;;;;;16.30;8.48;;;7.70;99.90;;;;;;5006648;28;20543;-65
2023/04/07 04:12:16;;;;;;;10.10;6.63;;;7.80;99.90;;;;;;5008555;28;20133;-66
2023/04/07 04:14:41;;;;;;;10.43;7.22;;;7.80;99.90;;;;;;5006666;28;20033;-66
2023/04/07 04:17:07;;;;;;;11.38;6.57;;;7.70;99.90;;;;;;5001283;28;20026;-65
2023/04/07 04:19:33;;;;;;;10.18;6.35;;;7.70;99.90;;;;;;5001508;28;20026;-65
2023/04/07 04:21:58;;;;;;;10.98;6.97;;;7.70;99.90;;;;;;5000810;28;21549;-66
2023/04/07 04:24:24;;;;;;;11.63;6.80;;;7.70;99.90;;;;;;5003257;28;20467;-66
2023/04/07 04:26:49;;;;;;;10.52;6.35;;;7.80;99.90;;;;;;5002328;28;20455;-65
2023/04/07 04:29:15;;;;;;;13.93;8.13;;;7.80;99.90;;;;;;4999865;28;20040;-66
2023/04/07 04:31:40;;;;;;;13.38;7.93;;;7.80;99.90;;;;;;4978078;28;20058;-66
2023/04/07 04:34:06;;;;;;;17.55;9.48;;;7.80;99.90;;;;;;5000315;28;20480;-66
2023/04/07 04:36:32;;;;;;;18.33;9.85;;;7.80;99.90;;;;;;5000716;28;20033;-65
2023/04/07 04:38:57;;;;;;;23.48;12.35;;;7.80;99.90;;;;;;5002391;28;20030;-66
2023/04/07 04:41:23;;;;;;;26.25;12.00;;;7.90;99.90;;;;;;5000488;28;20400;-65
2023/04/07 04:43:48;;;;;;;24.55;13.35;;;7.90;99.90;;;;;;5000259;28;20062;-66
2023/04/07 04:46:14;;;;;;;22.60;11.40;;;7.90;99.90;;;;;;5004352;28;20026;-66
2023/04/07 04:48:40;;;;;;;29.92;15.38;;;7.90;99.90;;;;;;5005826;28;20026;-65
2023/04/07 04:51:06;;;;;;;30.88;15.52;;;8.00;99.90;;;;;;5004600;28;20028;-66
2023/04/07 04:53:32;;;;;;;30.25;15.50;;;8.00;99.90;;;;;;5001035;28;20042;-65
2023/04/07 04:55:58;;;;;;;27.67;15.55;;;8.00;99.90;;;;;;5005895;28;20026;-66
2023/04/07 04:58:23;;;;;;;35.45;14.88;;;8.00;99.90;;;;;;5006916;28;20515;-66
2023/04/07 05:00:56;;;;;;;28.58;14.05;;;8.00;99.90;;;;;;5007557;28;20118;-65
2023/04/07 05:03:23;;;;;;;33.60;14.98;;;8.00;99.90;;;;;;5006780;28;20083;-66
2023/04/07 05:05:49;;;;;;;29.88;15.70;;;8.00;99.90;;;;;;5011636;28;20491;-66
2023/04/07 05:08:15;;;;;;;29.10;15.85;;;8.00;99.90;;;;;;5011364;28;20026;-66
2023/04/07 05:10:40;;;;;;;25.33;13.25;;;8.00;99.90;;;;;;5012600;28;20369;-65
2023/04/07 05:13:06;;;;;;;26.58;14.05;;;8.00;99.90;;;;;;5011474;28;20022;-65
2023/04/07 05:15:32;;;;;;;26.02;12.93;;;8.00;99.90;;;;;;5012447;28;20029;-66
2023/04/07 05:17:57;;;;;;;26.52;13.80;;;8.00;99.90;;;;;;5010901;28;20037;-65
2023/04/07 05:20:23;;;;;;;30.75;13.40;;;8.00;99.90;;;;;;5008204;28;20113;-67
2023/04/07 05:22:48;;;;;;;26.20;12.20;;;8.00;99.90;;;;;;5012311;28;20030;-66
2023/04/07 05:25:14;;;;;;;21.95;10.80;;;8.00;99.90;;;;;;5011559;28;20084;-66
2023/04/07 05:27:40;;;;;;;24.27;11.52;;;8.00;99.90;;;;;;5010623;28;20029;-66
2023/04/07 05:30:06;;;;;;;25.98;12.65;;;7.90;99.90;;;;;;4987753;28;20105;-66
2023/04/07 05:32:31;;;;;;;25.77;11.75;;;7.90;99.90;;;;;;5011049;28;20040;-66
2023/04/07 05:34:57;;;;;;;28.80;12.75;;;7.90;99.90;;;;;;5007736;28;20030;-66
2023/04/07 05:37:22;;;;;;;23.95;11.43;;;8.00;99.90;;;;;;5019196;28;20037;-66
2023/04/07 05:39:48;;;;;;;26.27;12.80;;;8.00;99.90;;;;;;5005064;28;20048;-66
2023/04/07 05:42:14;;;;;;;33.55;13.27;;;7.90;99.90;;;;;;5009205;28;20030;-65
2023/04/07 05:44:39;;;;;;;28.42;12.77;;;7.90;99.90;;;;;;5007912;28;20113;-66
2023/04/07 05:47:07;;;;;;;27.17;12.48;;;7.90;99.90;;;;;;5010937;28;20030;-67
2023/04/07 05:49:34;;;;;;;31.17;13.70;;;8.00;99.90;;;;;;5011192;28;20095;-66
2023/04/07 05:52:02;;;;;;;29.10;12.68;;;8.10;99.90;;;;;;5012023;28;20107;-66
2023/04/07 05:54:28;;;;;;;25.38;13.48;;;8.00;99.90;;;;;;5010630;28;20069;-65
2023/04/07 05:56:53;;;;;;;28.30;12.88;;;8.00;99.90;;;;;;5009585;28;20048;-66
2023/04/07 05:59:19;;;;;;;23.52;12.82;;;8.10;99.90;;;;;;5009798;28;20087;-65
2023/04/07 06:01:45;;;;;;;28.50;12.30;;;8.00;99.90;;;;;;5010682;28;20154;-65
2023/04/07 06:04:10;;;;;;;26.85;13.88;;;8.00;99.90;;;;;;5008452;28;20037;-66
2023/04/07 06:06:37;;;;;;;26.65;13.27;;;8.00;99.90;;;;;;5009436;28;20642;-66
2023/04/07 06:09:02;;;;;;;26.83;13.02;;;8.00;99.90;;;;;;5009292;28;20042;-66
2023/04/07 06:11:28;;;;;;;28.42;13.38;;;8.00;99.90;;;;;;5009120;28;20518;-65
2023/04/07 06:13:53;;;;;;;28.08;13.43;;;7.90;99.90;;;;;;5007310;28;20407;-66
2023/04/07 06:16:19;;;;;;;27.13;13.55;;;7.90;99.90;;;;;;5005198;28;20030;-65
2023/04/07 06:18:45;;;;;;;24.25;12.63;;;8.00;99.90;;;;;;5004955;28;20492;-65
2023/04/07 06:21:10;;;;;;;24.17;12.38;;;8.00;99.90;;;;;;5002253;28;20025;-66
2023/04/07 06:23:36;;;;;;;28.42;12.98;;;8.00;99.90;;;;;;5000472;28;20099;-65
2023/04/07 06:26:02;;;;;;;24.10;11.82;;;8.00;99.90;;;;;;5007364;28;20045;-66
2023/04/07 06:28:27;;;;;;;23.55;11.73;;;8.10;99.90;;;;;;5004565;28;20115;-66
2023/04/07 06:30:53;;;;;;;24.48;11.57;;;8.10;99.90;;;;;;4978526;28;20792;-66
2023/04/07 06:33:22;;;;;;;25.83;11.32;;;8.10;99.90;;;;;;5001976;28;20037;-66
2023/04/07 06:35:48;;;;;;;23.48;11.60;;;8.10;99.90;;;;;;5005258;28;20471;-65
2023/04/07 06:38:13;;;;;;;23.05;11.20;;;8.10;99.90;;;;;;5004437;28;20040;-66
2023/04/07 06:40:39;;;;;;;21.85;11.80;;;8.10;99.90;;;;;;5004995;28;20022;-66
2023/04/07 06:43:05;;;;;;;20.85;10.32;;;8.10;99.90;;;;;;5002481;28;20034;-66
2023/04/07 06:45:31;;;;;;;19.83;10.25;;;8.20;99.90;;;;;;5013515;28;20143;-66
2023/04/07 06:47:56;;;;;;;19.08;10.23;;;8.20;99.90;;;;;;5008928;28;20627;-65
2023/04/07 06:50:22;;;;;;;16.77;8.63;;;8.20;99.90;;;;;;5008654;28;20088;-66
2023/04/07 06:52:47;;;;;;;16.58;8.73;;;8.10;99.90;;;;;;5010552;28;20034;-65
2023/04/07 06:55:13;;;;;;;18.42;8.23;;;8.00;99.90;;;;;;5009580;28;20119;-64
2023/04/07 06:57:39;;;;;;;14.55;7.53;;;8.00;99.90;;;;;;5007213;28;20080;-66
2023/04/07 07:00:06;;;;;;;15.18;8.15;;;8.10;99.90;;;;;;5005604;28;20439;-66
2023/04/07 07:02:32;;;;;;;18.75;8.77;;;8.10;99.90;;;;;;5004232;28;20483;-66
2023/04/07 07:04:59;;;;;;;15.35;8.05;;;8.10;99.90;;;;;;5007819;28;20036;-66
2023/04/07 07:07:24;;;;;;;13.50;6.78;;;8.10;99.90;;;;;;5009736;28;20029;-66
2023/04/07 07:09:51;;;;;;;14.63;8.25;;;8.20;99.90;;;;;;5008067;28;20034;-65
2023/04/07 07:12:16;;;;;;;16.92;7.65;;;8.10;99.90;;;;;;5006412;28;20512;-66
2023/04/07 07:14:43;;;;;;;17.15;8.15;;;8.10;99.90;;;;;;4999652;28;20069;-67
2023/04/07 07:17:08;;;;;;;15.10;7.95;;;8.20;99.90;;;;;;5006663;28;20054;-67
2023/04/07 07:19:34;;;;;;;14.32;7.35;;;8.20;99.90;;;;;;5008609;28;20058;-65
2023/04/07 07:22:02;;;;;;;14.85;7.50;;;8.20;99.90;;;;;;5007806;28;20033;-66
2023/04/07 07:24:29;;;;;;;12.98;7.43;;;8.20;99.90;;;;;;5007596;28;20029;-67
2023/04/07 07:26:56;;;;;;;17.20;7.70;;;8.30;99.90;;;;;;5010671;28;20034;-65
2023/04/07 07:29:22;;;;;;;11.68;6.95;;;8.30;99.90;;;;;;5005853;28;20026;-65
2023/04/07 07:31:47;;;;;;;12.57;6.43;;;8.30;99.90;;;;;;4977996;28;20412;-65
2023/04/07 07:34:13;;;;;;;12.93;7.13;;;8.20;99.90;;;;;;5007472;28;20030;-65
2023/04/07 07:36:39;;;;;;;14.57;7.68;;;8.30;99.90;;;;;;5009333;28;20121;-64
2023/04/07 07:39:05;;;;;;;12.73;7.00;;;8.30;99.90;;;;;;5009536;28;20069;-66
2023/04/07 07:41:31;;;;;;;13.40;6.72;;;8.40;99.90;;;;;;5007111;28;20022;-66
2023/04/07 07:43:57;;;;;;;14.73;6.85;;;8.50;99.90;;;;;;5005632;28;20498;-65
2023/04/07 07:46:24;;;;;;;17.60;9.65;;;8.50;99.90;;;;;;5009710;28;20037;-66
2023/04/07 07:48:50;;;;;;;15.07;8.20;;;8.70;99.90;;;;;;5007341;28;20041;-65
2023/04/07 07:51:17;;;;;;;12.80;7.63;;;8.80;99.90;;;;;;5007758;28;20068;-65
2023/04/07 07:53:43;;;;;;;12.73;7.43;;;8.80;99.90;;;;;;5003566;28;20610;-66
2023/04/07 07:56:09;;;;;;;13.13;7.15;;;8.80;99.90;;;;;;5005615;28;20021;-66
2023/04/07 07:58:34;;;;;;;11.68;7.13;;;8.80;99.90;;;;;;5006342;28;20368;-65
2023/04/07 08:01:00;;;;;;;14.18;7.45;;;8.80;99.90;;;;;;5009451;28;20108;-66
2023/04/07 08:03:26;;;;;;;13.43;7.95;;;8.70;99.90;;;;;;5006460;28;20457;-66
2023/04/07 08:05:51;;;;;;;13.55;7.88;;;8.80;99.90;;;;;;5005851;28;20048;-65
2023/04/07 08:08:17;;;;;;;11.10;6.57;;;8.80;99.90;;;;;;5007379;28;20097;-65
2023/04/07 08:10:43;;;;;;;13.35;6.85;;;8.80;99.90;;;;;;5004306;28;20853;-64
2023/04/07 08:13:08;;;;;;;14.30;7.35;;;8.80;99.90;;;;;;5008852;28;20029;-66
2023/04/07 08:15:34;;;;;;;12.77;6.47;;;8.70;99.90;;;;;;5005753;28;20026;-65
2023/04/07 08:18:03;;;;;;;11.95;6.82;;;8.70;99.90;;;;;;5003308;28;20014;-66
2023/04/07 08:20:30;;;;;;;11.15;6.45;;;8.80;99.90;;;;;;5002090;28;20030;-66
2023/04/07 08:22:56;;;;;;;20.85;7.70;;;8.80;99.90;;;;;;5000896;28;20121;-66
2023/04/07 08:25:22;;;;;;;10.07;5.97;;;8.80;99.90;;;;;;5002498;28;20121;-66
2023/04/07 08:27:47;;;;;;;12.45;6.45;;;8.90;99.90;;;;;;5009840;28;20101;-66
2023/04/07 08:30:13;;;;;;;14.30;7.40;;;9.00;99.90;;;;;;5003452;28;20525;-65
2023/04/07 08:32:44;;;;;;;10.65;6.85;;;9.00;99.90;;;;;;4982597;28;20045;-66
2023/04/07 08:35:10;;;;;;;10.80;6.05;;;9.00;99.90;;;;;;5005296;28;20042;-65
2023/04/07 08:37:37;;;;;;;8.75;5.45;;;9.10;99.90;;;;;;5009951;28;20022;-66
2023/04/07 08:40:04;;;;;;;15.45;6.57;;;9.10;99.90;;;;;;5009778;28;20064;-66
2023/04/07 08:42:31;;;;;;;15.45;7.10;;;9.20;99.90;;;;;;5011376;28;20022;-65
2023/04/07 08:45:02;;;;;;;16.92;8.45;;;9.30;99.90;;;;;;5010542;28;20033;-65
2023/04/07 08:47:31;;;;;;;12.18;7.00;;;9.50;99.90;;;;;;5010596;28;20452;-64
2023/04/07 08:50:02;;;;;;;17.85;7.80;;;9.40;99.90;;;;;;5011330;28;20048;-66
2023/04/07 08:52:34;;;;;;;11.85;6.35;;;9.50;99.90;;;;;;5011087;28;20037;-65
2023/04/07 08:55:02;;;;;;;11.88;6.38;;;9.60;99.90;;;;;;5002883;28;20108;-66
2023/04/07 08:57:31;;;;;;;10.98;7.05;;;9.60;99.90;;;;;;5007639;28;20027;-66
2023/04/07 09:00:03;;;;;;;15.32;7.03;;;9.70;99.90;;;;;;5007675;28;20446;-65
2023/04/07 09:02:29;;;;;;;10.15;5.97;;;9.70;99.90;;;;;;5004224;28;20048;-66
2023/04/07 09:04:56;;;;;;;15.07;7.13;;;9.70;99.90;;;;;;5008374;28;20025;-65
2023/04/07 09:07:21;;;;;;;11.85;7.15;;;9.60;99.90;;;;;;5012527;28;20080;-65
2023/04/07 09:09:47;;;;;;;13.40;7.40;;;9.70;99.90;;;;;;5011623;28;20029;-66
2023/04/07 09:12:12;;;;;;;14.85;7.25;;;9.80;99.90;;;;;;5011420;28;20026;-66
2023/04/07 09:14:38;;;;;;;14.18;8.32;;;9.80;99.90;;;;;;5012524;28;20030;-65
2023/04/07 09:17:04;;;;;;;18.75;9.05;;;9.80;99.90;;;;;;5011482;28;20030;-66
2023/04/07 09:19:29;;;;;;;15.98;7.40;;;9.70;99.90;;;;;;5012233;28;20483;-65
2023/04/07 09:21:55;;;;;;;18.50;9.52;;;9.60;99.90;;;;;;5004405;28;20996;-65
2023/04/07 09:24:26;;;;;;;16.50;8.35;;;9.60;99.90;;;;;;5011016;28;20502;-65
2023/04/07 09:27:11;;;;;;;13.98;7.43;;;9.60;99.90;;;;;;5010807;28;20083;-66
2023/04/07 09:29:39;;;;;;;13.38;7.43;;;9.30;99.90;;;;;;5013477;28;20029;-65
2023/04/07 09:32:04;;;;;;;13.50;6.93;;;9.40;99.90;;;;;;4985005;28;20054;-66
2023/04/07 09:34:35;;;;;;;15.90;7.82;;;9.40;99.90;;;;;;5007645;28;20021;-66
2023/04/07 09:37:01;;;;;;;12.68;7.45;;;9.50;99.90;;;;;;5011249;28;20021;-66
2023/04/07 09:39:28;;;;;;;11.70;7.85;;;9.50;99.90;;;;;;5006083;28;20021;-65
2023/04/07 09:41:53;;;;;;;13.05;7.20;;;9.50;99.90;;;;;;5005693;28;20038;-65
2023/04/07 09:44:20;;;;;;;13.73;7.93;;;9.60;99.90;;;;;;5008782;28;20022;-66
2023/04/07 09:46:55;;;;;;;12.90;7.80;;;9.40;99.90;;;;;;5013635;28;20392;-66
2023/04/07 09:49:22;;;;;;;14.82;8.65;;;9.30;99.90;;;;;;5011501;28;20073;-65
2023/04/07 09:51:53;;;;;;;13.93;8.13;;;9.40;99.90;;;;;;5011803;28;20036;-66
2023/04/07 09:54:36;;;;;;;13.13;8.15;;;9.50;99.90;;;;;;5001780;28;20027;-66
2023/04/07 09:57:04;;;;;;;15.07;9.10;;;9.50;99.90;;;;;;5009317;28;20029;-66
2023/04/07 09:59:31;;;;;;;15.82;8.23;;;9.50;99.90;;;;;;5013762;28;20264;-66
2023/04/07 10:01:58;;;;;;;16.92;9.52;;;9.40;99.90;;;;;;5008053;28;20093;-66
2023/04/07 10:04:24;;;;;;;23.73;8.70;;;9.30;99.90;;;;;;5011751;28;20022;-65
2023/04/07 10:06:52;;;;;;;17.75;9.73;;;9.30;99.90;;;;;;5014527;28;20104;-66
2023/04/07 10:09:17;;;;;;;17.75;9.20;;;9.40;99.90;;;;;;5012437;28;20029;-66
2023/04/07 10:11:44;;;;;;;16.33;9.07;;;9.40;99.90;;;;;;5010113;28;20101;-66
2023/04/07 10:14:10;;;;;;;15.13;9.02;;;9.30;99.90;;;;;;5014166;28;20368;-66
2023/04/07 10:16:41;;;;;;;16.17;9.02;;;9.40;99.90;;;;;;5011165;28;20026;-66
2023/04/07 10:19:07;;;;;;;19.58;9.55;;;9.40;99.90;;;;;;5008916;28;20049;-66
2023/04/07 10:21:41;;;;;;;19.25;9.77;;;9.40;99.90;;;;;;5005677;28;20033;-66
2023/04/07 10:24:22;;;;;;;;;;;9.40;99.90;;;;;;5005085;28;20053;-66
2023/04/07 10:26:53;;;;;;;15.35;8.88;;;9.30;99.90;;;;;;5009102;28;19932;-66
2023/04/07 10:29:20;;;;;;;16.98;9.00;;;9.20;99.90;;;;;;5010103;28;20434;-66
2023/04/07 10:31:46;;;;;;;16.23;9.15;;;9.30;99.90;;;;;;4982300;28;20046;-66
2023/04/07 10:34:12;;;;;;;14.82;8.52;;;9.20;99.90;;;;;;5009935;28;20026;-66
2023/04/07 10:37:12;;;;;;;20.20;10.05;;;9.10;99.90;;;;;;5012545;28;20030;-64
2023/04/07 10:39:38;;;;;;;16.60;8.80;;;9.20;99.90;;;;;;5004287;28;20021;-66
2023/04/07 10:42:03;;;;;;;16.63;8.63;;;9.30;99.90;;;;;;5004065;28;20064;-65
2023/04/07 10:44:41;;;;;;;15.40;8.45;;;9.40;99.90;;;;;;4996483;28;20038;-66
2023/04/07 10:47:07;;;;;;;14.27;8.57;;;9.50;99.90;;;;;;4988420;28;20038;-66
2023/04/07 10:49:34;;;;;;;16.85;8.25;;;9.50;99.90;;;;;;4987682;28;20050;-66
2023/04/07 10:52:12;;;;;;;14.70;8.27;;;9.50;99.90;;;;;;4983125;28;20019;-66
2023/04/07 10:54:41;;;;;;;13.75;7.75;;;9.60;99.90;;;;;;4991922;28;20037;-66
2023/04/07 10:57:17;;;;;;;11.10;6.35;;;9.70;99.90;;;;;;4990711;28;20105;-66
2023/04/07 11:00:08;;;;;;;10.68;5.60;;;9.80;99.90;;;;;;4989680;28;20030;-65
2023/04/07 11:02:34;;;;;;;12.70;6.18;;;10.00;99.90;;;;;;4990926;28;20042;-66
2023/04/07 11:05:01;;;;;;;16.05;8.57;;;10.00;99.90;;;;;;4988950;28;20069;-65
2023/04/07 11:07:48;;;;;;;10.82;6.47;;;10.20;99.90;;;;;;4987866;28;20121;-65
2023/04/07 11:10:15;;;;;;;15.43;7.07;;;10.30;99.90;;;;;;4987073;28;20030;-66
2023/04/07 11:12:42;;;;;;;12.52;6.22;;;10.40;99.90;;;;;;4988662;28;20502;-67
2023/04/07 11:15:21;;;;;;;13.32;7.32;;;10.50;99.90;;;;;;4989721;28;20042;-66
2023/04/07 11:18:05;;;;;;;10.15;5.60;;;10.50;99.90;;;;;;4987472;28;20946;-65
2023/04/07 11:21:00;;;;;;;11.07;6.18;;;10.30;99.90;;;;;;4979994;28;20037;-66
2023/04/07 11:23:26;;;;;;;10.85;6.10;;;10.30;99.90;;;;;;4968077;28;20049;-66
2023/04/07 11:26:00;;;;;;;14.27;6.63;;;10.30;99.90;;;;;;4991056;28;20038;-66
2023/04/07 11:28:26;;;;;;;11.68;5.78;;;10.20;99.90;;;;;;4982215;28;20630;-66
2023/04/07 11:30:53;;;;;;;11.52;6.55;;;10.20;99.90;;;;;;4989273;28;20026;-66
2023/04/07 11:33:24;;;;;;;12.90;6.45;;;10.10;99.90;;;;;;4991875;28;20026;-65
2023/04/07 11:35:58;;;;;;;10.68;6.28;;;10.00;99.90;;;;;;4991555;28;20084;-66
2023/04/07 11:38:26;;;;;;;15.13;8.85;;;10.20;99.90;;;;;;4992295;28;20030;-66
2023/04/07 11:40:52;;;;;;;15.30;7.68;;;10.30;99.90;;;;;;4991898;28;20428;-67
2023/04/07 11:43:24;;;;;;;16.10;8.45;;;10.30;99.90;;;;;;4983252;28;20193;-66
2023/04/07 11:46:10;;;;;;;13.93;7.35;;;10.30;99.90;;;;;;4984662;28;20595;-65
2023/04/07 11:48:38;;;;;;;15.05;7.53;;;10.40;99.90;;;;;;4976309;28;20038;-66
2023/04/07 11:51:04;;;;;;;13.98;7.50;;;10.40;99.90;;;;;;4992608;28;20023;-66
2023/04/07 11:53:36;;;;;;;14.25;7.00;;;10.30;99.90;;;;;;4991287;28;20113;-68
2023/04/07 11:56:15;;;;;;;14.63;7.55;;;10.30;99.90;;;;;;4992327;28;20033;-68
2023/04/07 11:58:46;;;;;;;15.13;7.82;;;10.10;99.90;;;;;;4991736;28;20109;-66
2023/04/07 12:01:12;;;;;;;14.32;7.63;;;10.10;99.90;;;;;;4987600;28;20027;-65
2023/04/07 12:03:58;;;;;;;12.85;8.02;;;10.00;99.90;;;;;;4983132;28;20062;-67
2023/04/07 12:06:37;;;;;;;16.10;8.82;;;9.70;99.90;;;;;;4992374;28;20034;-67
2023/04/07 12:09:04;;;;;;;14.25;8.10;;;9.60;99.90;;;;;;4992363;28;20046;-68
2023/04/07 12:11:30;;;;;;;17.65;8.65;;;9.60;99.90;;;;;;4992372;28;20068;-68
2023/04/07 12:13:56;;;;;;;16.17;9.20;;;9.60;99.90;;;;;;4991239;28;20030;-67
2023/04/07 12:16:22;;;;;;;16.35;9.20;;;9.70;99.90;;;;;;4982248;28;20031;-67
2023/04/07 12:18:50;;;;;;;21.48;9.88;;;9.90;99.90;;;;;;4992097;28;20038;-67
2023/04/07 12:21:16;;;;;;;19.88;10.13;;;10.10;99.90;;;;;;4992161;28;20485;-65
2023/04/07 12:23:41;;;;;;;16.70;9.73;;;10.30;99.90;;;;;;4991355;28;20034;-68
2023/04/07 12:26:07;;;;;;;20.33;10.25;;;10.60;99.90;;;;;;4976131;28;20040;-69
2023/04/07 12:28:33;;;;;;;17.50;9.07;;;10.80;99.90;;;;;;4977098;28;20029;-68
2023/04/07 12:30:59;;;;;;;17.40;8.85;;;10.90;99.90;;;;;;4972613;28;20469;-66
2023/04/07 12:33:24;;;;;;;17.15;9.43;;;10.80;99.90;;;;;;4972638;28;20057;-66
2023/04/07 12:35:50;;;;;;;17.08;9.93;;;10.80;99.90;;;;;;4972638;28;20093;-66
2023/04/07 12:38:16;;;;;;;18.08;9.63;;;10.80;99.90;;;;;;4972600;28;20061;-68
2023/04/07 12:40:42;;;;;;;20.70;10.73;;;10.60;99.90;;;;;;4972585;28;20023;-65
2023/04/07 12:43:08;;;;;;;14.95;9.95;;;10.60;99.90;;;;;;4981877;28;20019;-68
2023/04/07 12:45:34;;;;;;;15.70;8.45;;;10.50;99.90;;;;;;4975784;28;20052;-65